Chalan Pago, Guam
Current Conditions -  °F | °C
As of 9:54 AM on Saturday 29 Nov 2014 (Local Time) from PGUM Reporting Station
Clear Clear  
Wind Chill: 87°   Ceiling: Unl
Heat Index: 93°   Visibility: 10mi
Dew Point: 72°   Wind: 17mph
Humidity: 61%   Direction: 60°ENE
Pressure: 29.91"   Gusts: 28mph
Location:  13.4744°N, 144.7478°E
Report Text: PGUM 282354Z 06015G24KT 10SM CLR 31/22 A2991 RMK AO2 SLP119 T03060222 10306 20272 51005
Loading
Personal Weather Stations






























Interactive Weather Map New forecast layout! Learn more

10-Day Weather Forecast

Advertisements
Track Severe Weather on mobile